createdAt,value
2023-01-19T00:00:25.399Z,8.37
2023-01-19T00:02:53.158Z,6.17
2023-01-19T00:05:20.165Z,6.33
2023-01-19T00:07:47.015Z,7.37
2023-01-19T00:10:14.034Z,7.33
2023-01-19T00:12:40.971Z,7.63
2023-01-19T00:15:08.472Z,7.97
2023-01-19T00:17:35.417Z,7.53
2023-01-19T00:20:02.360Z,6.93
2023-01-19T00:22:30.692Z,7.90
2023-01-19T00:24:57.734Z,7.47
2023-01-19T00:27:24.989Z,7.23
2023-01-19T00:29:51.909Z,6.40
2023-01-19T00:32:20.372Z,7.77
2023-01-19T00:34:49.657Z,5.60
2023-01-19T00:37:17.509Z,6.43
2023-01-19T00:39:45.139Z,6.13
2023-01-19T00:42:31.565Z,6.33
2023-01-19T00:44:58.513Z,5.50
2023-01-19T00:47:25.498Z,6.67
2023-01-19T00:49:52.527Z,5.87
2023-01-19T00:52:19.705Z,6.60
2023-01-19T00:54:46.635Z,7.30
2023-01-19T00:57:14.841Z,6.27
2023-01-19T00:59:41.752Z,6.13
2023-01-19T01:02:08.842Z,5.83
2023-01-19T01:04:35.979Z,6.97
2023-01-19T01:07:03.436Z,7.00
2023-01-19T01:09:30.655Z,5.70
2023-01-19T01:11:57.513Z,5.80
2023-01-19T01:14:26.889Z,4.90
2023-01-19T01:16:53.923Z,6.70
2023-01-19T01:19:24.503Z,5.67
2023-01-19T01:21:51.416Z,6.23
2023-01-19T01:24:18.935Z,6.37
2023-01-19T01:26:46.067Z,7.40
2023-01-19T01:29:13.073Z,6.70
2023-01-19T01:31:40.172Z,5.43
2023-01-19T01:34:07.484Z,5.80
2023-01-19T01:36:35.578Z,6.57
2023-01-19T01:39:02.550Z,6.30
2023-01-19T01:41:29.610Z,5.80
2023-01-19T01:44:01.895Z,5.97
2023-01-19T01:46:31.779Z,7.13
2023-01-19T01:49:09.676Z,6.37
2023-01-19T01:51:44.044Z,6.27
2023-01-19T01:54:21.452Z,7.03
2023-01-19T01:56:51.457Z,5.67
2023-01-19T01:59:26.283Z,6.30
2023-01-19T02:02:14.820Z,7.00
2023-01-19T02:05:04.286Z,5.87
2023-01-19T02:08:05.137Z,7.27
2023-01-19T02:10:52.018Z,6.30
2023-01-19T02:13:22.477Z,6.50
2023-01-19T02:15:55.111Z,5.37
2023-01-19T02:18:24.641Z,6.53
2023-01-19T02:21:11.661Z,6.20
2023-01-19T02:23:41.496Z,5.30
2023-01-19T02:26:10.697Z,5.20
2023-01-19T02:28:43.489Z,5.43
2023-01-19T02:31:11.344Z,7.13
2023-01-19T02:33:38.684Z,5.93
2023-01-19T02:36:08.231Z,6.57
2023-01-19T02:38:36.666Z,6.67
2023-01-19T02:41:06.368Z,6.60
2023-01-19T02:43:33.800Z,6.93
2023-01-19T02:46:00.763Z,6.23
2023-01-19T02:48:27.770Z,6.77
2023-01-19T02:51:04.252Z,5.23
2023-01-19T02:53:43.536Z,6.53
2023-01-19T02:56:42.377Z,6.57
2023-01-19T02:59:31.743Z,6.00
2023-01-19T03:02:26.679Z,5.47
2023-01-19T03:05:08.432Z,6.50
2023-01-19T03:08:03.957Z,5.77
2023-01-19T03:10:36.676Z,6.47
2023-01-19T03:13:11.267Z,6.03
2023-01-19T03:15:58.128Z,7.70
2023-01-19T03:18:29.642Z,5.93
2023-01-19T03:21:01.582Z,5.90
2023-01-19T03:23:34.050Z,6.47
2023-01-19T03:26:02.262Z,6.77
2023-01-19T03:28:30.755Z,5.87
2023-01-19T03:31:10.800Z,7.27
2023-01-19T03:33:40.525Z,7.27
2023-01-19T03:36:16.679Z,6.97
2023-01-19T03:38:46.513Z,7.73
2023-01-19T03:41:16.792Z,6.80
2023-01-19T03:43:45.839Z,7.27
2023-01-19T03:46:17.345Z,6.57
2023-01-19T03:48:46.906Z,6.73
2023-01-19T03:51:14.582Z,7.77
2023-01-19T03:53:42.090Z,7.03
2023-01-19T03:56:23.038Z,9.17
2023-01-19T03:58:50.511Z,7.00
2023-01-19T04:01:18.759Z,6.80
2023-01-19T04:03:47.214Z,7.47
2023-01-19T04:06:14.713Z,6.73
2023-01-19T04:08:41.821Z,7.67
2023-01-19T04:11:08.677Z,7.93
2023-01-19T04:13:36.167Z,6.70
2023-01-19T04:16:04.188Z,8.83
2023-01-19T04:18:34.641Z,6.33
2023-01-19T04:21:07.537Z,6.67
2023-01-19T04:23:35.416Z,8.57
2023-01-19T04:26:08.025Z,7.83
2023-01-19T04:28:37.213Z,7.83
2023-01-19T04:31:05.779Z,7.33
2023-01-19T04:33:33.431Z,7.17
2023-01-19T04:36:00.770Z,7.23
2023-01-19T04:38:27.869Z,7.00
2023-01-19T04:40:55.399Z,8.40
2023-01-19T04:43:23.465Z,8.10
2023-01-19T04:45:50.394Z,7.63
2023-01-19T04:48:18.614Z,8.27
2023-01-19T04:50:45.934Z,8.33
2023-01-19T04:53:13.929Z,8.13
2023-01-19T04:55:41.226Z,9.70
2023-01-19T04:58:08.316Z,8.00
2023-01-19T05:00:35.467Z,8.07
2023-01-19T05:03:02.732Z,8.03
2023-01-19T05:05:30.583Z,9.53
2023-01-19T05:07:57.565Z,9.47
2023-01-19T05:10:24.561Z,8.07
2023-01-19T05:12:51.986Z,7.70
2023-01-19T05:15:19.036Z,7.97
2023-01-19T05:17:46.746Z,8.13
2023-01-19T05:20:16.188Z,7.73
2023-01-19T05:22:48.547Z,8.23
2023-01-19T05:25:15.492Z,8.30
2023-01-19T05:27:42.556Z,8.87
2023-01-19T05:30:10.297Z,8.10
2023-01-19T05:32:37.242Z,9.33
2023-01-19T05:35:04.449Z,9.50
2023-01-19T05:37:32.733Z,9.40
2023-01-19T05:39:59.678Z,8.77
2023-01-19T05:42:32.023Z,8.63
2023-01-19T05:45:00.255Z,8.93
2023-01-19T05:47:29.481Z,8.60
2023-01-19T05:49:56.587Z,9.20
2023-01-19T05:52:25.031Z,10.37
2023-01-19T05:54:52.251Z,9.40
2023-01-19T05:57:19.228Z,7.87
2023-01-19T05:59:46.416Z,9.33
2023-01-19T06:02:13.432Z,10.47
2023-01-19T06:04:40.541Z,10.80
2023-01-19T06:07:07.512Z,9.77
2023-01-19T06:09:34.457Z,9.27
2023-01-19T06:12:01.527Z,9.93
2023-01-19T06:14:28.443Z,9.37
2023-01-19T06:16:55.353Z,8.77
2023-01-19T06:19:22.291Z,9.43
2023-01-19T06:21:52.347Z,8.30
2023-01-19T06:24:19.815Z,10.03
2023-01-19T06:26:49.769Z,10.47
2023-01-19T06:29:16.897Z,14.83
2023-01-19T06:31:44.135Z,13.43
2023-01-19T06:34:11.452Z,13.20
2023-01-19T06:36:38.824Z,14.30
2023-01-19T06:39:06.264Z,10.83
2023-01-19T06:41:34.098Z,9.90
2023-01-19T06:44:01.614Z,10.63
2023-01-19T06:46:29.068Z,10.27
2023-01-19T06:48:56.049Z,11.17
2023-01-19T06:51:23.491Z,11.77
2023-01-19T06:53:50.496Z,11.70
2023-01-19T06:56:17.418Z,11.30
2023-01-19T06:58:47.217Z,10.60
2023-01-19T07:01:14.452Z,9.53
2023-01-19T07:03:41.390Z,8.40
2023-01-19T07:06:08.607Z,8.30
2023-01-19T07:08:36.911Z,7.30
2023-01-19T07:11:24.772Z,7.40
2023-01-19T07:13:55.484Z,7.47
2023-01-19T07:16:23.731Z,6.80
2023-01-19T07:18:51.049Z,7.33
2023-01-19T07:21:18.530Z,6.87
2023-01-19T07:23:49.075Z,6.90
2023-01-19T07:26:18.677Z,7.17
2023-01-19T07:28:47.369Z,7.37
2023-01-19T07:31:16.398Z,8.00
2023-01-19T07:33:43.775Z,7.73
2023-01-19T07:36:11.630Z,7.20
2023-01-19T07:38:38.953Z,7.63
2023-01-19T07:41:08.581Z,8.00
2023-01-19T07:43:37.276Z,7.27
2023-01-19T07:46:07.167Z,7.70
2023-01-19T07:48:35.854Z,7.67
2023-01-19T07:51:12.961Z,6.70
2023-01-19T07:53:42.136Z,7.47
2023-01-19T07:56:10.235Z,7.03
2023-01-19T07:58:38.982Z,8.23
2023-01-19T08:01:13.408Z,8.77
2023-01-19T08:03:41.370Z,7.53
2023-01-19T08:06:19.736Z,8.37
2023-01-19T08:08:47.213Z,7.23
2023-01-19T08:11:16.041Z,8.70
2023-01-19T08:13:43.763Z,7.23
2023-01-19T08:16:10.855Z,6.83
2023-01-19T08:18:38.470Z,7.17
2023-01-19T08:21:05.884Z,7.97
2023-01-19T08:23:34.469Z,7.00
2023-01-19T08:26:27.562Z,6.97
2023-01-19T08:28:55.593Z,7.50
2023-01-19T08:31:25.018Z,7.87
2023-01-19T08:33:52.924Z,7.97
2023-01-19T08:36:21.590Z,6.60
2023-01-19T08:38:48.839Z,6.80
2023-01-19T08:41:19.416Z,7.53
2023-01-19T08:43:46.772Z,6.33
2023-01-19T08:46:17.624Z,7.13
2023-01-19T08:48:51.131Z,6.83
2023-01-19T08:51:18.781Z,7.10
2023-01-19T14:46:19.702Z,3.03
2023-01-19T14:48:48.971Z,3.53
2023-01-19T14:51:26.665Z,3.10
2023-01-19T14:53:58.617Z,3.50
2023-01-19T14:56:31.517Z,3.97
2023-01-19T14:59:01.045Z,4.20
2023-01-19T15:01:28.989Z,3.80
2023-01-19T15:03:57.486Z,3.13
2023-01-19T15:06:26.502Z,3.17
2023-01-19T15:08:54.242Z,2.80
2023-01-19T15:11:32.616Z,3.93
2023-01-19T15:14:00.195Z,3.37
2023-01-19T15:16:29.894Z,3.43
2023-01-19T15:18:56.891Z,3.00
2023-01-19T15:21:26.481Z,3.87
2023-01-19T15:23:54.737Z,3.60
2023-01-19T15:26:24.302Z,3.60
2023-01-19T15:28:52.063Z,2.90
2023-01-19T15:31:24.326Z,4.23
2023-01-19T15:33:51.611Z,3.87
2023-01-19T15:36:20.429Z,3.93
2023-01-19T15:38:50.853Z,3.73
2023-01-19T15:41:29.938Z,3.47
2023-01-19T15:43:57.919Z,3.97
2023-01-19T15:46:25.911Z,3.37
2023-01-19T15:48:53.706Z,3.33
2023-01-19T15:51:23.207Z,3.40
2023-01-19T15:53:50.506Z,3.03
2023-01-19T15:56:19.619Z,3.37
2023-01-19T15:58:46.927Z,4.00
2023-01-19T16:01:15.924Z,3.37
2023-01-19T16:03:43.258Z,3.90
2023-01-19T16:06:10.554Z,3.77
2023-01-19T16:08:38.155Z,3.90
2023-01-19T16:11:13.654Z,4.20
2023-01-19T16:13:40.788Z,3.27
2023-01-19T16:16:13.873Z,4.00
2023-01-19T16:18:41.016Z,5.33
2023-01-19T16:21:07.980Z,4.13
2023-01-19T16:23:34.907Z,4.50
2023-01-19T16:26:05.074Z,4.50
2023-01-19T16:28:32.049Z,3.50
2023-01-19T16:30:58.968Z,4.00
2023-01-19T16:33:25.919Z,4.60
2023-01-19T16:35:53.318Z,5.60
2023-01-19T16:38:22.689Z,5.47
2023-01-19T16:40:49.701Z,5.37
2023-01-19T16:43:16.629Z,4.60
2023-01-19T16:46:01.377Z,5.13
2023-01-19T16:48:28.996Z,5.60
2023-01-19T16:51:00.365Z,6.23
2023-01-19T16:53:28.041Z,6.43
2023-01-19T16:55:55.207Z,7.03
2023-01-19T16:58:22.448Z,7.37
2023-01-19T17:00:49.810Z,6.70
2023-01-19T17:03:17.111Z,6.03
2023-01-19T17:05:49.491Z,5.90
2023-01-19T17:08:18.961Z,5.93
2023-01-19T17:10:47.300Z,5.20
2023-01-19T17:13:14.295Z,4.33
2023-01-19T17:15:41.304Z,5.77
2023-01-19T17:18:10.221Z,4.97
2023-01-19T17:20:37.337Z,4.80
2023-01-19T17:23:04.401Z,4.20
2023-01-19T17:25:31.399Z,5.27
2023-01-19T17:28:01.456Z,4.53
2023-01-19T17:30:28.787Z,4.50
2023-01-19T17:32:55.984Z,4.77
2023-01-19T17:35:23.134Z,4.23
2023-01-19T17:37:54.169Z,3.43
2023-01-19T17:40:21.206Z,3.70
2023-01-19T17:42:48.241Z,3.93
2023-01-19T17:45:15.270Z,4.30
2023-01-19T17:47:42.166Z,4.60
2023-01-19T17:50:10.090Z,4.00
2023-01-19T17:52:38.074Z,4.13
2023-01-19T17:55:05.420Z,3.63
2023-01-19T17:57:32.341Z,4.53
2023-01-19T17:59:59.500Z,3.90
2023-01-19T18:02:26.484Z,4.90
2023-01-19T18:04:53.491Z,4.43
2023-01-19T18:07:20.587Z,4.73
2023-01-19T18:09:47.547Z,3.93
2023-01-19T18:12:14.481Z,4.50
2023-01-19T18:14:41.633Z,3.57
2023-01-19T18:17:08.738Z,4.00
2023-01-19T18:19:35.769Z,2.93
2023-01-19T18:22:02.808Z,3.80
2023-01-19T18:24:29.731Z,3.80
2023-01-19T18:26:56.733Z,3.93
2023-01-19T18:29:23.810Z,3.13
2023-01-19T18:31:50.790Z,3.63
2023-01-19T18:34:17.881Z,3.57
2023-01-19T18:36:44.907Z,3.43
2023-01-19T18:39:12.103Z,4.13
2023-01-19T18:41:41.872Z,3.83
2023-01-19T18:44:09.933Z,3.30
2023-01-19T18:46:37.699Z,4.27
2023-01-19T18:49:05.513Z,3.80
2023-01-19T18:51:32.571Z,4.50
2023-01-19T18:53:59.713Z,4.00
2023-01-19T18:56:26.895Z,4.57
2023-01-19T18:58:54.199Z,5.00
2023-01-19T19:01:27.065Z,4.50
2023-01-19T19:03:57.207Z,4.80
2023-01-19T19:06:27.069Z,5.17
2023-01-19T19:08:56.118Z,4.27
2023-01-19T19:11:24.638Z,4.37
2023-01-19T19:14:00.217Z,3.87
2023-01-19T19:16:28.950Z,4.60
2023-01-19T19:18:56.398Z,4.17
2023-01-19T19:21:25.320Z,3.73
2023-01-19T19:23:54.961Z,3.10
2023-01-19T19:26:23.818Z,3.63
2023-01-19T19:28:50.760Z,3.10
2023-01-19T19:31:20.908Z,3.90
2023-01-19T19:33:51.003Z,4.50
2023-01-19T19:36:20.009Z,3.70
2023-01-19T19:38:52.220Z,4.53
2023-01-19T19:41:23.005Z,4.03
2023-01-19T19:43:50.815Z,4.80
2023-01-19T19:46:26.317Z,3.10
2023-01-19T19:48:54.439Z,3.10
2023-01-19T19:51:27.543Z,3.40
2023-01-19T19:53:56.856Z,3.00
2023-01-19T19:56:25.909Z,3.17
2023-01-19T19:58:55.808Z,2.97
2023-01-19T20:01:28.512Z,3.37
2023-01-19T20:03:57.617Z,2.50
2023-01-19T20:06:26.023Z,3.60
2023-01-19T20:08:55.388Z,3.40
2023-01-19T20:11:27.444Z,3.33
2023-01-19T20:13:54.793Z,2.97
2023-01-19T20:16:23.331Z,3.33
2023-01-19T20:18:54.450Z,3.20
2023-01-19T20:21:27.547Z,2.77
2023-01-19T20:23:56.814Z,3.40
2023-01-19T20:26:27.234Z,2.77
2023-01-19T20:28:56.926Z,3.37
2023-01-19T20:31:27.334Z,2.80
2023-01-19T20:33:56.506Z,3.03
2023-01-19T20:36:24.606Z,3.20
2023-01-19T20:38:54.247Z,3.30
2023-01-19T20:41:22.596Z,3.70
2023-01-19T20:43:50.645Z,2.80
2023-01-19T20:46:18.495Z,3.70
2023-01-19T20:48:50.973Z,3.50
2023-01-19T20:51:19.102Z,3.10
2023-01-19T20:53:46.877Z,3.47
2023-01-19T20:56:15.609Z,4.07
2023-01-19T20:58:43.061Z,3.07
2023-01-19T21:01:21.902Z,3.10
2023-01-19T21:03:49.322Z,3.53
2023-01-19T21:06:16.846Z,3.13
2023-01-19T21:08:44.399Z,3.07
2023-01-19T21:11:13.230Z,2.73
2023-01-19T21:13:40.193Z,3.43
2023-01-19T21:16:07.922Z,3.87
2023-01-19T21:18:38.093Z,2.90
2023-01-19T21:21:05.047Z,3.53
2023-01-19T21:23:32.054Z,3.77
2023-01-19T21:26:00.090Z,2.60
2023-01-19T21:28:28.699Z,2.80
2023-01-19T21:30:56.314Z,2.80
2023-01-19T21:33:23.516Z,2.67
2023-01-19T21:35:55.454Z,2.93
2023-01-19T21:38:24.928Z,2.80
2023-01-19T21:40:51.853Z,2.37
2023-01-19T21:43:20.147Z,2.70
2023-01-19T21:45:48.580Z,3.27
2023-01-19T21:48:17.349Z,2.77
2023-01-19T21:50:44.692Z,3.03
2023-01-19T21:53:12.004Z,2.73
2023-01-19T21:55:44.624Z,2.70
2023-01-19T21:58:11.507Z,3.60
2023-01-19T22:00:38.487Z,2.00
2023-01-19T22:03:05.495Z,2.97
2023-01-19T22:05:37.176Z,3.10
2023-01-19T22:08:06.377Z,2.33
2023-01-19T22:10:37.724Z,2.43
2023-01-19T22:13:06.720Z,3.00
2023-01-19T22:15:33.851Z,2.57
2023-01-19T22:18:00.853Z,3.00
2023-01-19T22:20:28.147Z,3.03
2023-01-19T22:22:56.053Z,2.73
2023-01-19T22:25:27.683Z,2.30
2023-01-19T22:27:55.814Z,3.20
2023-01-19T22:30:22.789Z,2.43
2023-01-19T22:32:49.886Z,2.90
2023-01-19T22:35:17.025Z,3.00
2023-01-19T22:37:43.901Z,2.73
2023-01-19T22:40:11.645Z,3.00
2023-01-19T22:42:39.281Z,2.93
2023-01-19T22:45:06.742Z,2.93
2023-01-19T22:47:33.769Z,2.97
2023-01-19T22:50:00.687Z,3.33
2023-01-19T22:52:27.514Z,2.53
2023-01-19T22:54:56.438Z,2.90
2023-01-19T22:57:23.330Z,3.10
2023-01-19T22:59:50.189Z,3.23
2023-01-19T23:02:18.631Z,3.17
2023-01-19T23:04:47.429Z,2.87
2023-01-19T23:07:14.353Z,2.93
2023-01-19T23:09:41.275Z,3.13
2023-01-19T23:12:08.124Z,2.60
2023-01-19T23:14:36.322Z,3.20
2023-01-19T23:17:03.275Z,2.50
2023-01-19T23:19:30.305Z,3.17
2023-01-19T23:21:57.350Z,3.10
2023-01-19T23:24:24.193Z,2.90
2023-01-19T23:26:51.299Z,2.27
2023-01-19T23:29:18.398Z,2.70
2023-01-19T23:31:47.855Z,2.77
2023-01-19T23:34:14.883Z,3.10
2023-01-19T23:36:43.221Z,3.50
2023-01-19T23:39:16.597Z,3.30
2023-01-19T23:41:43.973Z,3.50
2023-01-19T23:44:10.799Z,2.90
2023-01-19T23:46:38.602Z,3.07
2023-01-19T23:49:05.547Z,2.93
2023-01-19T23:51:33.334Z,3.93
2023-01-19T23:54:00.825Z,3.03
2023-01-19T23:56:30.320Z,3.50
2023-01-19T23:59:03.942Z,3.50
